Time;durP1;ratioP1;P1;durP2;ratioP2;P2;SDS_P1;SDS_P2;PMS_P1;PMS_P2;Temp;Humidity;BMP_temperature;BMP_pressure;BME280_temperature;BME280_humidity;BME280_pressure;Samples;Min_cycle;Max_cycle;Signal;HPM_P1;HPM_P2
2023/09/02 00:00:04;;;;;;;1.77;1.20;;;20.80;99.90;;;;;;4950571;28;20491;-26
2023/09/02 00:02:30;;;;;;;1.20;1.10;;;20.70;99.90;;;;;;4984383;28;20431;-26
2023/09/02 00:04:56;;;;;;;1.40;1.10;;;20.70;99.90;;;;;;4986044;28;20483;-26
2023/09/02 00:07:22;;;;;;;1.38;1.20;;;20.60;99.90;;;;;;4988890;28;20038;-26
2023/09/02 00:09:48;;;;;;;1.87;1.20;;;20.50;99.90;;;;;;4971072;28;20033;-26
2023/09/02 00:12:13;;;;;;;1.30;1.20;;;20.50;99.90;;;;;;4996911;28;20021;-25
2023/09/02 00:14:39;;;;;;;2.03;1.00;;;20.50;99.90;;;;;;4987095;28;20355;-25
2023/09/02 00:17:05;;;;;;;1.20;1.00;;;20.40;99.90;;;;;;4974294;28;20041;-25
2023/09/02 00:19:31;;;;;;;1.67;1.00;;;20.40;99.90;;;;;;4987892;28;20033;-25
2023/09/02 00:21:56;;;;;;;1.85;1.20;;;20.30;99.90;;;;;;4957187;28;20042;-27
2023/09/02 00:24:22;;;;;;;1.50;1.13;;;20.30;99.90;;;;;;4987281;28;20033;-27
2023/09/02 00:26:48;;;;;;;1.23;1.10;;;20.30;99.90;;;;;;4977294;28;20215;-26
2023/09/02 00:29:14;;;;;;;1.48;1.27;;;20.20;99.90;;;;;;4968691;28;20034;-26
2023/09/02 00:31:39;;;;;;;2.30;1.37;;;20.20;99.90;;;;;;4971031;28;20542;-27
2023/09/02 00:34:05;;;;;;;2.13;1.20;;;20.20;99.90;;;;;;4954168;28;20770;-25
2023/09/02 00:36:32;;;;;;;1.20;1.10;;;20.10;99.90;;;;;;4970758;28;20042;-25
2023/09/02 00:38:59;;;;;;;1.70;1.08;;;20.10;99.90;;;;;;4973818;28;20279;-26
2023/09/02 00:41:37;;;;;;;1.60;1.20;;;20.00;99.90;;;;;;4966543;28;20041;-25
2023/09/02 00:44:03;;;;;;;1.23;0.98;;;20.00;99.90;;;;;;4997591;28;20056;-25
2023/09/02 00:46:29;;;;;;;2.00;1.20;;;20.00;99.90;;;;;;4949048;28;20053;-25
2023/09/02 00:48:55;;;;;;;1.77;1.23;;;19.90;99.90;;;;;;4985346;28;20159;-25
2023/09/02 00:51:20;;;;;;;1.30;1.20;;;19.90;99.90;;;;;;4980791;28;20083;-27
2023/09/02 00:53:46;;;;;;;1.00;0.90;;;19.80;99.90;;;;;;4977388;28;20175;-25
2023/09/02 00:56:13;;;;;;;1.65;1.10;;;19.80;99.90;;;;;;4984194;28;20041;-26
2023/09/02 00:58:42;;;;;;;1.20;1.10;;;19.80;99.90;;;;;;4996459;28;20083;-23
2023/09/02 01:01:09;;;;;;;1.40;1.10;;;19.80;99.90;;;;;;4972798;28;20076;-20
2023/09/02 01:03:35;;;;;;;1.75;1.10;;;19.70;99.90;;;;;;4969622;28;20046;-22
2023/09/02 01:06:05;;;;;;;1.70;1.10;;;19.70;99.90;;;;;;4992810;28;20585;-21
2023/09/02 01:08:32;;;;;;;1.20;1.00;;;19.70;99.90;;;;;;4975890;28;20022;-23
2023/09/02 01:10:59;;;;;;;1.70;1.17;;;19.60;99.90;;;;;;4967733;28;20470;-21
2023/09/02 01:13:25;;;;;;;1.40;1.08;;;19.60;99.90;;;;;;4998787;28;20057;-23
2023/09/02 01:15:54;;;;;;;1.90;1.20;;;19.60;99.90;;;;;;4990758;28;20270;-22
2023/09/02 01:18:24;;;;;;;1.83;1.08;;;19.50;99.90;;;;;;4976826;28;20022;-22
2023/09/02 01:21:08;;;;;;;1.17;1.08;;;19.50;99.90;;;;;;4995421;28;20377;-21
2023/09/02 01:24:11;;;;;;;1.47;1.10;;;19.50;99.90;;;;;;4990265;28;20493;-23
2023/09/02 01:26:59;;;;;;;1.50;1.10;;;19.50;99.90;;;;;;4973721;28;20466;-24
2023/09/02 01:29:29;;;;;;;1.13;1.00;;;19.40;99.90;;;;;;4998892;28;20030;-22
2023/09/02 01:31:57;;;;;;;1.00;0.90;;;19.40;99.90;;;;;;4959036;28;20698;-22
2023/09/02 01:34:24;;;;;;;0.90;0.90;;;19.40;99.90;;;;;;4974978;28;20514;-23
2023/09/02 01:36:52;;;;;;;1.40;1.07;;;19.30;99.90;;;;;;4991962;28;20021;-20
2023/09/02 01:39:20;;;;;;;1.60;1.05;;;19.30;99.90;;;;;;4967263;28;20368;-21
2023/09/02 01:41:47;;;;;;;1.25;1.00;;;19.30;99.90;;;;;;4985351;28;20479;-21
2023/09/02 01:44:14;;;;;;;1.08;0.80;;;19.30;99.90;;;;;;4984622;28;20088;-22
2023/09/02 01:46:40;;;;;;;1.90;1.10;;;19.30;99.90;;;;;;4995274;28;20534;-23
2023/09/02 01:49:07;;;;;;;2.07;1.10;;;19.20;99.90;;;;;;4941391;28;20014;-22
2023/09/02 01:51:33;;;;;;;0.88;0.80;;;19.20;99.90;;;;;;4978434;28;20048;-21
2023/09/02 01:53:59;;;;;;;1.83;1.02;;;19.20;99.90;;;;;;4957193;28;20037;-26
2023/09/02 01:56:25;;;;;;;1.10;0.80;;;19.10;99.90;;;;;;4975534;28;20710;-22
2023/09/02 01:58:53;;;;;;;1.10;1.00;;;19.10;99.90;;;;;;4984193;28;20022;-23
2023/09/02 02:01:19;;;;;;;1.10;0.80;;;19.10;99.90;;;;;;4977100;28;20036;-21
2023/09/02 02:04:01;;;;;;;0.90;0.80;;;19.10;99.90;;;;;;4975651;28;20074;-21
2023/09/02 02:06:28;;;;;;;0.80;0.80;;;19.10;99.90;;;;;;4947853;28;20026;-21
2023/09/02 02:09:06;;;;;;;1.00;0.83;;;18.90;99.90;;;;;;4954676;28;20501;-27
2023/09/02 02:11:37;;;;;;;1.67;0.85;;;19.00;99.90;;;;;;4968478;28;20475;-25
2023/09/02 02:14:04;;;;;;;1.58;0.80;;;19.00;99.90;;;;;;4971319;28;20376;-24
2023/09/02 02:16:30;;;;;;;0.93;0.80;;;19.00;99.90;;;;;;4977725;28;20105;-25
2023/09/02 02:18:58;;;;;;;1.20;0.80;;;18.90;99.90;;;;;;4970530;28;20029;-26
2023/09/02 02:21:24;;;;;;;0.80;0.80;;;18.90;99.90;;;;;;4981094;28;20537;-25
2023/09/02 02:23:50;;;;;;;1.27;0.73;;;18.80;99.90;;;;;;4996950;28;20115;-25
2023/09/02 02:26:15;;;;;;;0.93;0.80;;;18.80;99.90;;;;;;4944591;28;20518;-25
2023/09/02 02:28:42;;;;;;;1.10;0.70;;;18.80;99.90;;;;;;4974630;28;20141;-25
2023/09/02 02:31:08;;;;;;;0.70;0.70;;;18.80;99.90;;;;;;4980268;28;20087;-25
2023/09/02 02:33:37;;;;;;;0.75;0.70;;;17.90;99.90;;;;;;4970509;28;20034;-25
2023/09/02 02:36:03;;;;;;;1.02;0.80;;;18.70;99.90;;;;;;4959242;28;20057;-26
2023/09/02 02:38:28;;;;;;;0.80;0.80;;;18.70;99.90;;;;;;4999726;28;20030;-24
2023/09/02 02:40:54;;;;;;;1.43;0.90;;;18.70;99.90;;;;;;4981807;28;20699;-25
2023/09/02 02:43:26;;;;;;;1.27;0.73;;;18.70;99.90;;;;;;4960130;28;20086;-24
2023/09/02 02:45:53;;;;;;;0.90;0.80;;;18.70;99.90;;;;;;4987836;28;20026;-28
2023/09/02 02:48:22;;;;;;;0.80;0.80;;;18.60;99.90;;;;;;4995860;28;20222;-27
2023/09/02 02:50:48;;;;;;;1.00;0.70;;;18.60;99.90;;;;;;4960034;28;20034;-25
2023/09/02 02:53:13;;;;;;;0.70;0.70;;;18.60;99.90;;;;;;4997220;28;20760;-25
2023/09/02 02:55:41;;;;;;;1.13;0.90;;;18.60;99.90;;;;;;5001162;28;20101;-25
2023/09/02 02:58:07;;;;;;;1.15;0.90;;;18.60;99.90;;;;;;4980246;28;20040;-25
2023/09/02 03:00:33;;;;;;;0.98;0.80;;;18.50;99.90;;;;;;4961403;28;20022;-25
2023/09/02 03:02:58;;;;;;;1.30;0.77;;;18.50;99.90;;;;;;4998218;28;20053;-25
2023/09/02 03:05:24;;;;;;;0.95;0.85;;;18.50;99.90;;;;;;4976852;28;20034;-30
2023/09/02 03:07:50;;;;;;;1.30;0.80;;;18.50;99.90;;;;;;4998297;28;20057;-25
2023/09/02 03:10:16;;;;;;;1.02;0.90;;;18.40;99.90;;;;;;4980132;28;20212;-25
2023/09/02 03:12:42;;;;;;;0.80;0.80;;;18.40;99.90;;;;;;4986055;28;20569;-24
2023/09/02 03:15:08;;;;;;;0.80;0.80;;;18.40;99.90;;;;;;4966769;28;20109;-25
2023/09/02 03:17:33;;;;;;;0.80;0.80;;;18.40;99.90;;;;;;4997191;28;20025;-25
2023/09/02 03:19:59;;;;;;;1.73;0.80;;;18.40;99.90;;;;;;4998980;28;20033;-23
2023/09/02 03:22:25;;;;;;;0.77;0.70;;;18.40;99.90;;;;;;4959284;28;20243;-23
2023/09/02 03:24:54;;;;;;;0.80;0.70;;;18.40;99.90;;;;;;4997672;28;20049;-21
2023/09/02 03:27:20;;;;;;;0.93;0.77;;;18.30;99.90;;;;;;4997184;28;20049;-22
2023/09/02 03:29:49;;;;;;;1.08;0.90;;;18.30;99.90;;;;;;4985336;28;20037;-21
2023/09/02 03:32:15;;;;;;;1.08;0.80;;;18.30;99.90;;;;;;4969313;28;20692;-21
2023/09/02 03:34:40;;;;;;;1.43;0.80;;;18.20;99.90;;;;;;4999850;28;20060;-21
2023/09/02 03:37:06;;;;;;;1.88;0.75;;;18.20;99.90;;;;;;4960237;28;20145;-23
2023/09/02 03:39:33;;;;;;;0.73;0.67;;;18.30;99.90;;;;;;4993736;28;20561;-22
2023/09/02 03:42:00;;;;;;;1.10;0.80;;;18.20;99.90;;;;;;4998158;28;20313;-23
2023/09/02 03:44:26;;;;;;;0.68;0.60;;;18.20;99.90;;;;;;4983079;28;20301;-22
2023/09/02 03:46:51;;;;;;;0.70;0.70;;;18.20;99.90;;;;;;4984122;28;20037;-23
2023/09/02 03:49:17;;;;;;;1.73;0.80;;;18.20;99.90;;;;;;4976838;28;20030;-21
2023/09/02 03:51:43;;;;;;;1.08;0.80;;;18.10;99.90;;;;;;4977855;28;20033;-21
2023/09/02 03:54:09;;;;;;;1.00;0.70;;;18.10;99.90;;;;;;4992364;28;20022;-23
2023/09/02 03:56:36;;;;;;;1.23;0.80;;;18.10;99.90;;;;;;4985550;28;20327;-22
2023/09/02 03:59:08;;;;;;;1.65;0.80;;;18.10;99.90;;;;;;4970873;28;20037;-24
2023/09/02 04:01:34;;;;;;;1.17;0.80;;;18.00;99.90;;;;;;4964703;28;20105;-21
2023/09/02 04:03:59;;;;;;;0.93;0.60;;;18.00;99.90;;;;;;4997978;28;20156;-23
2023/09/02 04:06:25;;;;;;;1.00;0.80;;;18.00;99.90;;;;;;4966272;28;20162;-21
2023/09/02 04:08:51;;;;;;;0.88;0.80;;;18.00;99.90;;;;;;4974135;28;20462;-23
2023/09/02 04:11:17;;;;;;;1.00;0.80;;;17.90;99.90;;;;;;4990110;28;20147;-22
2023/09/02 04:13:43;;;;;;;0.80;0.77;;;18.50;99.90;;;;;;4998381;28;20026;-21
2023/09/02 04:16:10;;;;;;;1.37;0.90;;;17.90;99.90;;;;;;4964864;28;20057;-23
2023/09/02 04:18:36;;;;;;;1.30;0.90;;;17.90;99.90;;;;;;4997402;28;20021;-21
2023/09/02 04:21:03;;;;;;;1.08;0.77;;;17.90;99.90;;;;;;4995527;28;20029;-23
2023/09/02 04:23:30;;;;;;;1.77;0.80;;;17.90;99.90;;;;;;4973162;28;20066;-25
2023/09/02 04:25:57;;;;;;;1.08;0.90;;;17.90;99.90;;;;;;4992833;28;20030;-23
2023/09/02 04:28:23;;;;;;;1.60;0.90;;;17.90;99.90;;;;;;4994661;28;20056;-21
2023/09/02 04:30:51;;;;;;;1.10;0.88;;;17.90;99.90;;;;;;4976386;28;20025;-23
2023/09/02 04:33:17;;;;;;;1.13;0.90;;;17.90;99.90;;;;;;4975064;28;20133;-21
2023/09/02 04:35:45;;;;;;;1.65;1.00;;;17.80;99.90;;;;;;4977173;28;20104;-21
2023/09/02 04:38:11;;;;;;;2.05;1.05;;;17.90;99.90;;;;;;4954782;28;20952;-22
2023/09/02 04:40:41;;;;;;;1.70;1.00;;;17.90;99.90;;;;;;4993618;28;20573;-22
2023/09/02 04:43:08;;;;;;;0.90;0.80;;;17.80;99.90;;;;;;4995268;28;20041;-26
2023/09/02 04:45:35;;;;;;;1.05;0.90;;;17.80;99.90;;;;;;4982704;28;20057;-21
2023/09/02 04:48:02;;;;;;;1.30;1.10;;;17.90;99.90;;;;;;4987334;28;20022;-24
2023/09/02 04:50:29;;;;;;;2.95;1.83;;;17.90;99.90;;;;;;4990376;28;20275;-22
2023/09/02 04:52:56;;;;;;;1.33;0.93;;;17.90;99.90;;;;;;4973332;28;20018;-23
2023/09/02 04:55:24;;;;;;;3.47;1.45;;;17.90;99.90;;;;;;4972548;28;20382;-21
2023/09/02 04:57:54;;;;;;;2.33;1.10;;;17.90;99.90;;;;;;4981427;28;20095;-22
2023/09/02 05:00:22;;;;;;;1.77;1.20;;;18.00;99.90;;;;;;4975849;28;20605;-20
2023/09/02 05:02:48;;;;;;;1.20;1.00;;;18.10;99.90;;;;;;4970910;28;20354;-22
2023/09/02 05:05:15;;;;;;;1.53;0.87;;;18.00;99.90;;;;;;4979853;28;20038;-21
2023/09/02 05:07:41;;;;;;;2.70;1.30;;;18.10;99.90;;;;;;4948759;28;20123;-20
2023/09/02 05:10:07;;;;;;;1.73;0.87;;;18.10;99.90;;;;;;4973521;28;20057;-20
2023/09/02 05:12:34;;;;;;;1.35;0.98;;;18.20;99.90;;;;;;4994759;28;20030;-22
2023/09/02 05:15:00;;;;;;;1.35;1.15;;;18.20;99.90;;;;;;4997548;28;20434;-22
2023/09/02 05:17:27;;;;;;;1.42;1.08;;;18.30;99.90;;;;;;4959512;28;20040;-22
2023/09/02 05:19:52;;;;;;;1.65;1.15;;;18.30;99.90;;;;;;4964301;28;20256;-22
2023/09/02 05:22:18;;;;;;;1.30;1.00;;;18.30;99.90;;;;;;4992296;28;20080;-21
2023/09/02 05:24:44;;;;;;;1.85;1.02;;;18.30;99.90;;;;;;4971153;28;20026;-21
2023/09/02 05:27:10;;;;;;;2.03;1.10;;;18.40;99.90;;;;;;4940779;28;21378;-20
2023/09/02 05:29:36;;;;;;;3.50;1.30;;;18.40;99.90;;;;;;4962033;28;20025;-22
2023/09/02 05:32:02;;;;;;;1.40;1.07;;;18.40;99.90;;;;;;4958541;28;20449;-21
2023/09/02 05:34:28;;;;;;;1.50;1.00;;;18.50;99.90;;;;;;4972760;28;20368;-22
2023/09/02 05:36:54;;;;;;;1.50;1.20;;;18.50;99.90;;;;;;4989508;28;20214;-21
2023/09/02 05:39:19;;;;;;;1.40;1.17;;;18.60;99.90;;;;;;4981716;28;20471;-22
2023/09/02 05:41:45;;;;;;;2.17;1.30;;;18.60;99.90;;;;;;4971092;28;20114;-21
2023/09/02 05:44:11;;;;;;;1.90;1.20;;;18.60;99.90;;;;;;4980683;28;20438;-21
2023/09/02 05:46:37;;;;;;;1.27;1.00;;;18.70;99.90;;;;;;4973034;28;20450;-21
2023/09/02 05:49:03;;;;;;;1.42;1.13;;;18.70;99.90;;;;;;4996796;28;20347;-20
2023/09/02 05:51:29;;;;;;;1.40;1.10;;;18.70;99.90;;;;;;4978905;28;20060;-22
2023/09/02 05:53:55;;;;;;;1.53;1.30;;;18.70;99.90;;;;;;4968329;28;20258;-23
2023/09/02 05:56:21;;;;;;;2.00;1.13;;;18.80;99.90;;;;;;4962854;28;20407;-22
2023/09/02 05:58:47;;;;;;;1.45;1.23;;;18.80;99.90;;;;;;4972028;28;20315;-21
2023/09/02 06:01:13;;;;;;;2.17;1.20;;;18.90;99.90;;;;;;4964113;28;20029;-21
2023/09/02 06:03:40;;;;;;;1.77;1.20;;;18.90;99.90;;;;;;4977171;28;20293;-20
2023/09/02 06:06:12;;;;;;;1.63;1.27;;;19.00;99.90;;;;;;4948435;28;20369;-21
2023/09/02 06:08:38;;;;;;;1.40;1.13;;;19.00;99.90;;;;;;4980262;28;20234;-21
2023/09/02 06:11:04;;;;;;;1.90;1.33;;;19.00;99.90;;;;;;4996908;28;20018;-22
2023/09/02 06:13:31;;;;;;;1.83;1.13;;;19.10;99.90;;;;;;4936645;28;20081;-20
2023/09/02 06:16:02;;;;;;;1.88;1.40;;;19.10;99.90;;;;;;4990508;28;20029;-23
2023/09/02 06:18:28;;;;;;;1.90;1.20;;;19.10;99.90;;;;;;4979615;28;20034;-21
2023/09/02 06:20:54;;;;;;;1.77;1.17;;;19.20;99.90;;;;;;4969265;28;20111;-22
2023/09/02 06:23:20;;;;;;;2.05;1.25;;;19.20;99.90;;;;;;4997357;28;20033;-21
2023/09/02 06:26:00;;;;;;;1.67;1.23;;;19.30;99.90;;;;;;4966008;28;20026;-22
2023/09/02 06:28:26;;;;;;;3.15;1.27;;;19.30;99.90;;;;;;4959690;28;20065;-21
2023/09/02 06:30:52;;;;;;;1.67;1.27;;;19.30;99.90;;;;;;4993680;28;20030;-23
2023/09/02 06:33:20;;;;;;;2.47;1.63;;;19.40;99.90;;;;;;4977525;28;26084;-20
2023/09/02 06:35:46;;;;;;;2.22;1.30;;;19.40;99.90;;;;;;4957528;28;20030;-22
2023/09/02 06:38:12;;;;;;;2.60;1.50;;;19.50;99.90;;;;;;4996009;28;20622;-20
2023/09/02 06:40:38;;;;;;;1.93;1.50;;;19.50;99.90;;;;;;4969461;28;20037;-20
2023/09/02 06:43:04;;;;;;;1.80;1.33;;;19.50;99.90;;;;;;4960875;28;20507;-20
2023/09/02 06:45:29;;;;;;;2.80;1.50;;;19.60;99.90;;;;;;4973610;28;20157;-21
2023/09/02 06:47:55;;;;;;;2.15;1.40;;;19.60;99.90;;;;;;4964291;28;20084;-24
2023/09/02 06:50:21;;;;;;;1.97;1.30;;;19.60;99.90;;;;;;4980674;28;20040;-22
2023/09/02 06:52:47;;;;;;;2.08;1.63;;;19.70;99.90;;;;;;4980455;28;20505;-23
2023/09/02 06:55:15;;;;;;;1.75;1.45;;;19.70;99.90;;;;;;4985182;28;20365;-21
2023/09/02 06:57:44;;;;;;;3.03;1.40;;;19.80;99.90;;;;;;4996526;28;20117;-22
2023/09/02 07:00:11;;;;;;;2.42;1.42;;;19.80;99.90;;;;;;4970328;28;20033;-22
2023/09/02 07:02:37;;;;;;;2.53;1.42;;;19.90;99.90;;;;;;4997475;28;20057;-21
2023/09/02 07:05:04;;;;;;;2.30;1.55;;;19.90;99.90;;;;;;4933893;28;20038;-22
2023/09/02 07:07:30;;;;;;;2.25;1.45;;;20.00;99.90;;;;;;4981382;28;20352;-21
2023/09/02 07:09:57;;;;;;;1.67;1.40;;;20.10;99.90;;;;;;4976252;28;20029;-22
2023/09/02 07:12:24;;;;;;;2.10;1.60;;;20.10;99.90;;;;;;4986053;28;20092;-21
2023/09/02 07:14:49;;;;;;;1.80;1.38;;;20.20;99.90;;;;;;4971673;28;20026;-23
2023/09/02 07:17:15;;;;;;;3.00;1.73;;;20.20;99.90;;;;;;4987769;28;20191;-22
2023/09/02 07:19:41;;;;;;;3.38;1.67;;;20.30;99.90;;;;;;4962966;28;20068;-22
2023/09/02 07:22:06;;;;;;;2.33;1.43;;;20.30;99.90;;;;;;4975217;28;20355;-21
2023/09/02 07:24:32;;;;;;;3.17;1.65;;;20.40;99.90;;;;;;5000247;28;20701;-23
2023/09/02 07:26:58;;;;;;;3.13;1.67;;;20.50;99.90;;;;;;4930734;28;21222;-21
2023/09/02 07:29:24;;;;;;;2.93;1.87;;;20.50;99.90;;;;;;4981508;28;20264;-21
2023/09/02 07:31:50;;;;;;;2.75;1.70;;;20.60;99.90;;;;;;4955996;28;20030;-22
2023/09/02 07:34:15;;;;;;;2.80;1.60;;;20.60;99.90;;;;;;4985380;28;20470;-20
2023/09/02 07:36:44;;;;;;;2.40;1.80;;;20.70;99.90;;;;;;4974238;28;20064;-22
2023/09/02 07:39:10;;;;;;;2.75;1.58;;;20.70;99.90;;;;;;4975046;28;20034;-21
2023/09/02 07:41:35;;;;;;;3.70;1.80;;;20.80;99.90;;;;;;4997601;28;20143;-23
2023/09/02 07:44:01;;;;;;;2.70;1.60;;;20.40;99.90;;;;;;4986867;28;20026;-21
2023/09/02 07:46:27;;;;;;;1.92;1.48;;;20.80;99.90;;;;;;4941498;28;20030;-20
2023/09/02 07:48:53;;;;;;;2.67;1.60;;;20.90;99.90;;;;;;4996708;28;20706;-21
2023/09/02 07:51:18;;;;;;;3.00;1.60;;;20.90;99.90;;;;;;4966381;28;20064;-22
2023/09/02 07:53:45;;;;;;;1.40;1.30;;;21.00;99.90;;;;;;4968679;28;20030;-22
2023/09/02 07:56:11;;;;;;;2.33;1.43;;;21.00;99.90;;;;;;4974665;28;20045;-22
2023/09/02 07:58:37;;;;;;;2.70;1.50;;;21.00;99.90;;;;;;4988807;28;20034;-23
2023/09/02 08:01:03;;;;;;;3.13;1.55;;;21.10;99.90;;;;;;4979911;28;20034;-22
2023/09/02 08:03:28;;;;;;;2.77;1.90;;;21.20;99.90;;;;;;4942584;28;20073;-21
2023/09/02 08:05:55;;;;;;;2.60;1.65;;;21.30;99.90;;;;;;4975159;28;20081;-22
2023/09/02 08:08:21;;;;;;;3.30;2.00;;;21.40;99.90;;;;;;4999111;28;20038;-23
2023/09/02 08:10:47;;;;;;;3.13;1.57;;;21.50;99.90;;;;;;4974262;28;20030;-25
2023/09/02 08:13:22;;;;;;;4.03;2.03;;;21.60;99.90;;;;;;4951794;28;20100;-24
2023/09/02 08:15:47;;;;;;;2.50;1.90;;;21.80;99.90;;;;;;4978091;28;20083;-22
2023/09/02 08:18:13;;;;;;;2.73;2.10;;;22.10;99.90;;;;;;4953827;28;20022;-21
2023/09/02 08:20:39;;;;;;;2.47;1.60;;;22.40;99.90;;;;;;4996190;28;20276;-23
2023/09/02 08:23:05;;;;;;;2.38;1.80;;;22.60;99.90;;;;;;4975242;28;20030;-21
2023/09/02 08:25:30;;;;;;;2.80;1.73;;;22.90;99.90;;;;;;4934313;28;20026;-21
2023/09/02 08:27:56;;;;;;;2.90;1.67;;;23.10;99.90;;;;;;4993757;28;20052;-21
2023/09/02 08:30:22;;;;;;;2.07;1.40;;;23.30;99.90;;;;;;4987924;28;20069;-21
2023/09/02 08:32:48;;;;;;;2.15;1.50;;;23.40;99.90;;;;;;4972496;28;20273;-22
2023/09/02 08:35:13;;;;;;;2.60;1.73;;;23.50;99.90;;;;;;4994173;28;20033;-20
2023/09/02 08:37:39;;;;;;;2.42;1.67;;;23.60;99.90;;;;;;4946451;28;20034;-23
2023/09/02 08:40:06;;;;;;;2.60;2.00;;;23.70;99.90;;;;;;4944024;28;21258;-22
2023/09/02 08:42:35;;;;;;;2.63;1.63;;;23.80;99.90;;;;;;4983332;28;20081;-23
2023/09/02 08:45:06;;;;;;;3.10;2.00;;;23.90;99.90;;;;;;4950677;28;20037;-22
2023/09/02 08:47:34;;;;;;;4.15;2.05;;;24.00;99.90;;;;;;4996796;28;20076;-24
2023/09/02 08:50:02;;;;;;;3.25;1.77;;;24.10;99.90;;;;;;4944081;28;20026;-21
2023/09/02 08:52:27;;;;;;;3.60;1.98;;;24.20;99.90;;;;;;4937099;28;20399;-21
2023/09/02 08:54:54;;;;;;;4.63;1.97;;;24.20;99.90;;;;;;4962170;28;20038;-20
2023/09/02 08:57:20;;;;;;;2.95;1.90;;;24.30;99.90;;;;;;4998764;28;20057;-21
2023/09/02 08:59:47;;;;;;;2.92;1.73;;;24.50;99.90;;;;;;4970473;28;20034;-23
2023/09/02 09:05:35;;;;;;;4.70;1.63;;;25.00;99.90;;;;;;4995822;28;20117;-25
2023/09/02 09:08:01;;;;;;;3.20;2.13;;;25.40;99.90;;;;;;4977265;28;20345;-21
2023/09/02 09:10:32;;;;;;;2.70;1.90;;;25.80;99.90;;;;;;4998194;28;20025;-24
2023/09/02 09:12:58;;;;;;;3.25;1.77;;;26.20;99.90;;;;;;4964214;28;20037;-24
2023/09/02 09:15:24;;;;;;;3.30;2.30;;;26.60;99.90;;;;;;4983573;28;20036;-25
2023/09/02 09:17:50;;;;;;;4.03;2.20;;;27.10;99.90;;;;;;4983220;28;20518;-24
2023/09/02 09:20:17;;;;;;;2.90;2.25;;;27.60;99.90;;;;;;4941494;28;20387;-28
2023/09/02 09:22:43;;;;;;;3.45;2.20;;;28.10;99.90;;;;;;4996178;28;20034;-26
2023/09/02 09:25:10;;;;;;;3.90;2.13;;;28.70;99.90;;;;;;4964866;28;20531;-25
2023/09/02 09:27:36;;;;;;;3.00;2.10;;;29.10;99.90;;;;;;4947083;28;20033;-25
2023/09/02 09:30:01;;;;;;;2.80;2.07;;;29.50;99.90;;;;;;4992696;28;20022;-25
2023/09/02 09:32:27;;;;;;;2.87;2.10;;;29.90;99.90;;;;;;4986739;28;20026;-25
2023/09/02 09:34:53;;;;;;;3.50;1.80;;;30.20;99.90;;;;;;4969739;28;26327;-25
2023/09/02 09:37:19;;;;;;;3.00;2.00;;;30.60;99.90;;;;;;4978383;28;20109;-26
2023/09/02 09:39:47;;;;;;;1.60;1.50;;;31.00;99.90;;;;;;4980437;28;20674;-24
2023/09/02 09:42:17;;;;;;;1.92;1.70;;;31.40;99.90;;;;;;4980972;28;20030;-25
2023/09/02 09:44:58;;;;;;;2.42;1.90;;;31.80;99.90;;;;;;4971451;28;20045;-26
2023/09/02 09:47:25;;;;;;;2.38;1.92;;;32.10;99.90;;;;;;4964077;28;20041;-26
2023/09/02 09:49:52;;;;;;;1.90;1.70;;;32.30;99.90;;;;;;4953302;28;20045;-24
2023/09/02 09:52:20;;;;;;;2.50;1.45;;;32.50;99.90;;;;;;4996949;28;20044;-24
2023/09/02 09:54:48;;;;;;;1.88;1.67;;;32.50;99.90;;;;;;4965611;28;20022;-27
2023/09/02 09:57:31;;;;;;;1.98;1.75;;;32.40;99.90;;;;;;4964584;28;20064;-24
2023/09/02 09:59:57;;;;;;;2.20;1.50;;;32.30;99.90;;;;;;4964141;28;20061;-25
2023/09/02 10:02:24;;;;;;;2.47;1.63;;;32.00;99.90;;;;;;4948675;28;20126;-25
2023/09/02 10:04:57;;;;;;;1.90;1.52;;;31.90;99.90;;;;;;4976170;28;20551;-24
2023/09/02 10:07:31;;;;;;;2.03;1.60;;;31.70;99.90;;;;;;4951671;28;20149;-25
2023/09/02 10:10:04;;;;;;;1.90;1.40;;;31.60;99.90;;;;;;4992583;28;20415;-26
2023/09/02 10:12:33;;;;;;;1.75;1.65;;;31.50;99.90;;;;;;4950207;28;20046;-25
2023/09/02 10:15:00;;;;;;;2.13;1.70;;;31.50;99.90;;;;;;4960618;28;20054;-25
2023/09/02 10:17:27;;;;;;;2.88;1.80;;;31.60;99.90;;;;;;4973600;28;20492;-25
2023/09/02 10:19:53;;;;;;;2.53;1.85;;;31.80;99.90;;;;;;4969657;28;20377;-24
2023/09/02 10:22:22;;;;;;;2.00;1.85;;;32.20;99.90;;;;;;4939697;28;22784;-24
2023/09/02 10:24:58;;;;;;;2.27;1.80;;;32.50;99.90;;;;;;4969347;28;20029;-26
2023/09/02 10:27:26;;;;;;;2.45;1.80;;;32.90;99.90;;;;;;4932961;28;20349;-28
2023/09/02 10:29:57;;;;;;;2.85;1.75;;;33.20;99.90;;;;;;4977340;28;20106;-26
2023/09/02 10:32:40;;;;;;;2.00;1.80;;;33.30;99.90;;;;;;4962839;28;20995;-26
2023/09/02 10:35:22;;;;;;;2.30;1.70;;;33.20;99.90;;;;;;4954719;28;20056;-25
2023/09/02 10:37:54;;;;;;;2.30;1.80;;;33.30;99.90;;;;;;4981073;28;20038;-25
2023/09/02 10:40:23;;;;;;;2.00;1.80;;;33.50;99.90;;;;;;4974119;28;20029;-26
2023/09/02 10:42:50;;;;;;;1.92;1.70;;;33.70;99.90;;;;;;4958212;28;20041;-24
2023/09/02 10:45:19;;;;;;;2.05;1.70;;;34.00;99.90;;;;;;4974875;28;20511;-24
2023/09/02 10:47:47;;;;;;;1.88;1.65;;;34.10;99.90;;;;;;4976810;28;20069;-25
2023/09/02 10:50:16;;;;;;;2.47;1.70;;;34.20;99.90;;;;;;4937444;28;20090;-25
2023/09/02 10:52:42;;;;;;;1.67;1.50;;;34.10;99.90;;;;;;4977899;28;20116;-24
2023/09/02 10:55:09;;;;;;;2.22;1.88;;;34.00;99.90;;;;;;4975478;28;20038;-24
2023/09/02 10:57:56;;;;;;;1.93;1.50;;;33.80;99.90;;;;;;4949106;28;20557;-24
2023/09/02 11:00:24;;;;;;;2.03;1.60;;;33.80;99.90;;;;;;4965017;28;20038;-23
2023/09/02 11:02:54;;;;;;;2.03;1.70;;;33.70;99.90;;;;;;4989688;28;20410;-24
2023/09/02 11:05:21;;;;;;;1.60;1.40;;;33.50;99.90;;;;;;4976552;28;20322;-25
2023/09/02 11:07:48;;;;;;;2.45;1.50;;;33.30;99.90;;;;;;4976751;28;20423;-25
2023/09/02 11:10:16;;;;;;;2.80;1.50;;;33.10;99.90;;;;;;4979534;28;20022;-24
2023/09/02 11:13:00;;;;;;;1.85;1.60;;;32.90;99.90;;;;;;4968050;28;20499;-24
2023/09/02 11:15:26;;;;;;;2.03;1.60;;;32.60;99.30;;;;;;4995195;28;20412;-24
2023/09/02 11:17:53;;;;;;;2.40;1.63;;;32.40;99.90;;;;;;4999567;28;20361;-26
2023/09/02 11:20:26;;;;;;;2.63;1.50;;;32.10;99.90;;;;;;4973841;28;20679;-24
2023/09/02 11:23:01;;;;;;;2.03;1.50;;;31.80;99.90;;;;;;4976116;28;20450;-25
2023/09/02 11:25:41;;;;;;;2.15;1.50;;;31.50;99.90;;;;;;4980355;28;20104;-27
2023/09/02 11:28:13;;;;;;;2.50;1.70;;;31.40;99.90;;;;;;4989945;28;20025;-25
2023/09/02 11:30:39;;;;;;;2.80;1.95;;;31.30;99.90;;;;;;4980317;28;20402;-20
2023/09/02 11:33:09;;;;;;;2.20;2.00;;;31.40;99.90;;;;;;4957983;28;20033;-22
2023/09/02 11:35:36;;;;;;;2.13;1.77;;;31.70;99.90;;;;;;4958778;28;20224;-21
2023/09/02 11:38:21;;;;;;;2.60;1.95;;;31.90;99.90;;;;;;4958948;28;20470;-21
2023/09/02 11:40:47;;;;;;;2.30;1.98;;;32.20;99.90;;;;;;4973604;28;20034;-22
2023/09/02 11:43:18;;;;;;;2.50;1.85;;;32.40;99.90;;;;;;4978133;28;20575;-22
2023/09/02 11:45:45;;;;;;;2.40;1.90;;;32.60;99.90;;;;;;4954003;28;20030;-22
2023/09/02 11:48:11;;;;;;;2.20;1.90;;;32.70;99.90;;;;;;4981196;28;20044;-22
2023/09/02 11:50:39;;;;;;;2.25;2.05;;;32.90;99.90;;;;;;4997778;28;20125;-20
2023/09/02 11:53:06;;;;;;;2.83;2.10;;;33.10;99.90;;;;;;4964363;28;20032;-22
2023/09/02 11:55:32;;;;;;;2.33;1.70;;;33.50;99.90;;;;;;4979936;28;20095;-20
2023/09/02 11:58:07;;;;;;;2.37;2.17;;;33.90;99.90;;;;;;4947826;28;20034;-21
2023/09/02 12:00:33;;;;;;;1.98;1.80;;;34.40;99.90;;;;;;4936428;28;20128;-20
2023/09/02 12:03:03;;;;;;;2.50;1.75;;;34.80;99.90;;;;;;4961126;28;20108;-21
2023/09/02 12:05:29;;;;;;;2.37;2.00;;;35.30;99.90;;;;;;4962719;28;20510;-22
2023/09/02 12:07:55;;;;;;;2.03;1.83;;;35.70;99.90;;;;;;4944639;28;20268;-20
2023/09/02 12:10:24;;;;;;;2.35;1.98;;;36.10;99.90;;;;;;4975159;28;20061;-22
2023/09/02 12:12:50;;;;;;;2.35;2.15;;;36.50;99.90;;;;;;4968135;28;20605;-20
2023/09/02 12:15:18;;;;;;;1.90;1.80;;;36.90;99.90;;;;;;4975877;28;20088;-20
2023/09/02 12:17:47;;;;;;;1.92;1.80;;;37.00;99.90;;;;;;4942320;28;20576;-19
2023/09/02 12:20:14;;;;;;;2.42;2.00;;;37.10;99.90;;;;;;4948432;28;20030;-20
2023/09/02 12:22:42;;;;;;;1.63;1.53;;;36.90;99.90;;;;;;4946639;28;22102;-20
2023/09/02 12:25:22;;;;;;;1.95;1.60;;;36.60;99.30;;;;;;4964868;28;20057;-20
2023/09/02 12:27:49;;;;;;;3.25;1.98;;;36.20;95.80;;;;;;4981126;28;20042;-19
2023/09/02 12:30:26;;;;;;;1.90;1.48;;;35.70;98.60;;;;;;4975791;28;20033;-22
2023/09/02 12:32:52;;;;;;;1.58;1.45;;;35.20;96.40;;;;;;4956228;28;20073;-20
2023/09/02 12:35:17;;;;;;;1.63;1.50;;;34.90;99.90;;;;;;5007806;23;20050;-24
2023/09/02 12:37:43;;;;;;;1.77;1.67;;;34.80;99.90;;;;;;4953217;28;20037;-25
2023/09/02 12:40:15;;;;;;;1.80;1.70;;;34.80;99.90;;;;;;4944091;28;20038;-22
2023/09/02 12:42:42;;;;;;;2.05;1.65;;;34.80;99.90;;;;;;4968896;28;20038;-24
2023/09/02 12:45:09;;;;;;;1.90;1.80;;;34.60;99.90;;;;;;4952282;28;20183;-22
2023/09/02 12:47:36;;;;;;;1.90;1.70;;;34.40;99.90;;;;;;4944920;28;20060;-25
2023/09/02 12:50:03;;;;;;;1.80;1.67;;;34.30;99.90;;;;;;4977119;28;20022;-22
2023/09/02 12:52:30;;;;;;;1.80;1.70;;;34.10;99.90;;;;;;4968491;28;20031;-21